papssl.com alexa rank chart, papssl.com alexa rank daily changes

papssl.com alexa rank chart, papssl.com alexa rank daily changes

papssl.com
Actual rank:
60 575

RANK HISTORY

Date Rank Diff
2017/01/17 60 575 +2 283
2017/01/16 58 292 +1 014
2017/01/15 57 278 -1 635
2017/01/14 58 913 -280
2017/01/13 59 193 -1 774
2017/01/12 60 967 +385
2017/01/11 60 582 -2 043
2017/01/10 62 625 +751
2017/01/09 61 874 +1 759
2017/01/08 60 115 -1 047
2017/01/07 61 162 -966
2017/01/06 62 128 +971
2017/01/05 61 157 +3 879
2017/01/04 57 278 +1 622
2017/01/03 55 656 -1 478
2017/01/02 57 134 -1 605
2017/01/01 58 739 -319
2016/12/31 59 058 -727
2016/12/30 59 785 -746
2016/12/29 60 531 +445
2016/12/28 60 086 +1 270
2016/12/27 58 816 +479
2016/12/26 58 337 -1 073
2016/12/25 59 410 +2 721
2016/12/24 56 689 +641
2016/12/23 56 048 +307
2016/12/22 55 741 -440
2016/12/21 56 181 +2 643
2016/12/20 53 538 -2 588
2016/12/19 56 126 -242
2016/12/18 56 368 -691
2016/12/17 57 059 -2 279
2016/12/16 59 338 -984
2016/12/15 60 322 -301
2016/12/14 60 623 +1 179
2016/12/13 59 444 +568
2016/12/12 58 876 -832
2016/12/11 59 708 -1 080
2016/12/10 60 788 +2 300
2016/12/09 58 488 +2 159
2016/12/08 56 329 +820
2016/12/07 55 509 +1 933
2016/12/06 53 576 +1 448
2016/12/05 52 128 -3 410
2016/12/04 55 538 +2 270
2016/12/02 53 268 +507
2016/12/01 52 761 +2 196
2016/11/30 50 565 +1 188
2016/11/29 49 377 -814
2016/11/28 50 191 +1 220
2016/11/27 48 971 -848
2016/11/26 49 819 -576
2016/11/25 50 395 -1 743
2016/11/24 52 138 -270
2016/11/23 52 408 -1 273
2016/11/19 53 681 +298
2016/11/18 53 383

WIDGET FOR YOUR SITE

DOMAINS WITH THE NEAREST RANK

Domain Rank
arclightcinemas.com 60 570
clutch.co 60 571
tec.nj.us 60 572
iamcalcio.it 60 573
shortstack.com 60 574
papssl.com 60 575
100run.com 60 576
futurestud.io 60 577
jotformpro.com 60 578
brands4all.com.gr 60 579
naitreetgrandir.com 60 580

DOMAINS WITH THE NEAREST RANK BY TLD .com

Domain Rank
musics247.com 60 560
merstrike.com 60 561
bpm-power.com 60 565
arclightcinemas.com 60 570
shortstack.com 60 574
papssl.com 60 575
100run.com 60 576
jotformpro.com 60 578
naitreetgrandir.com 60 580
worshiphousemedia.com 60 589
mediabinn.com 60 590